createdAt,value
2018-03-20T00:00:48.954Z,98015.94
2018-03-20T00:03:16.513Z,98008.14
2018-03-20T00:05:44.073Z,98009.52
2018-03-20T00:08:11.644Z,98016.06
2018-03-20T00:10:39.265Z,98009.69
2018-03-20T00:13:06.910Z,98009.03
2018-03-20T00:15:34.657Z,98003.75
2018-03-20T00:18:02.473Z,97998.91
2018-03-20T00:20:30.042Z,97999.95
2018-03-20T00:22:57.670Z,97994.33
2018-03-20T00:25:25.221Z,97992.75
2018-03-20T00:27:53.045Z,97994.08
2018-03-20T00:30:20.950Z,97989.09
2018-03-20T00:32:48.581Z,97984.03
2018-03-20T00:35:16.400Z,97981.56
2018-03-20T00:37:44.110Z,97981.23
2018-03-20T00:40:11.731Z,97981.86
2018-03-20T00:42:39.431Z,97984.14
2018-03-20T00:45:06.991Z,97977.61
2018-03-20T00:47:34.554Z,97979.27
2018-03-20T00:50:02.304Z,97989.33
2018-03-20T00:52:29.890Z,97987.97
2018-03-20T00:54:57.452Z,97979.21
2018-03-20T00:57:25.263Z,97974.25
2018-03-20T00:59:52.814Z,97973.56
2018-03-20T01:02:20.699Z,97972.28
2018-03-20T01:04:48.251Z,97971.47
2018-03-20T01:07:15.810Z,97976.00
2018-03-20T01:09:43.463Z,97966.05
2018-03-20T01:12:11.083Z,97957.08
2018-03-20T01:14:38.888Z,97963.40
2018-03-20T01:17:06.445Z,97958.17
2018-03-20T01:19:34.005Z,97965.70
2018-03-20T01:22:01.743Z,97965.83
2018-03-20T01:24:29.357Z,97967.45
2018-03-20T01:26:56.969Z,97967.89
2018-03-20T01:29:24.525Z,97966.50
2018-03-20T01:31:52.279Z,97968.16
2018-03-20T01:34:19.826Z,97968.45
2018-03-20T01:36:47.634Z,97971.67
2018-03-20T01:39:15.203Z,97967.41
2018-03-20T01:41:42.778Z,97971.26
2018-03-20T01:44:10.492Z,97970.20
2018-03-20T01:46:38.117Z,97968.66
2018-03-20T01:49:05.707Z,97963.17
2018-03-20T01:51:33.270Z,97969.24
2018-03-20T01:54:00.838Z,97967.43
2018-03-20T01:56:28.394Z,97968.23
2018-03-20T01:58:56.210Z,97966.30
2018-03-20T02:01:23.765Z,97968.37
2018-03-20T02:03:51.326Z,97959.75
2018-03-20T02:06:19.030Z,97964.92
2018-03-20T02:08:46.649Z,97967.32
2018-03-20T02:11:14.202Z,97967.24
2018-03-20T02:13:41.774Z,97969.98
2018-03-20T02:16:09.339Z,97966.83
2018-03-20T02:18:36.902Z,97973.11
2018-03-20T02:21:04.672Z,97970.89
2018-03-20T02:23:32.221Z,97972.23
2018-03-20T02:25:59.786Z,97973.13
2018-03-20T02:28:27.343Z,97969.90
2018-03-20T02:30:54.966Z,97968.36
2018-03-20T02:33:22.526Z,97971.89
2018-03-20T02:35:50.089Z,97976.91
2018-03-20T02:38:17.663Z,97972.76
2018-03-20T02:40:45.290Z,97974.92
2018-03-20T02:43:12.863Z,97967.95
2018-03-20T02:45:40.649Z,97972.44
2018-03-20T02:48:08.263Z,97970.41
2018-03-20T02:50:35.833Z,97964.42
2018-03-20T02:53:03.411Z,97972.22
2018-03-20T02:55:30.986Z,97966.50
2018-03-20T02:57:58.715Z,97973.11
2018-03-20T03:00:26.458Z,97974.89
2018-03-20T03:02:54.045Z,97976.41
2018-03-20T03:05:21.889Z,97969.25
2018-03-20T03:07:49.502Z,97970.65
2018-03-20T03:10:17.229Z,97980.17
2018-03-20T03:12:45.047Z,97980.77
2018-03-20T03:15:12.678Z,97978.80
2018-03-20T03:17:40.255Z,97978.71
2018-03-20T03:20:08.002Z,97977.97
2018-03-20T03:22:35.612Z,97973.70
2018-03-20T03:25:03.234Z,97983.33
2018-03-20T03:27:31.007Z,97981.44
2018-03-20T03:29:58.566Z,97981.47
2018-03-20T03:32:26.142Z,97979.39
2018-03-20T03:34:53.720Z,97989.42
2018-03-20T03:37:21.275Z,97990.78
2018-03-20T03:39:48.857Z,97996.83
2018-03-20T03:42:16.409Z,97987.70
2018-03-20T03:44:43.984Z,97988.86
2018-03-20T03:47:11.799Z,97987.69
2018-03-20T03:49:39.616Z,97990.50
2018-03-20T03:52:07.436Z,97984.04
2018-03-20T03:54:35.254Z,97993.28
2018-03-20T03:57:02.833Z,97997.09
2018-03-20T03:59:30.589Z,97991.13
2018-03-20T04:01:58.150Z,97995.50
2018-03-20T04:04:25.825Z,98000.53
2018-03-20T04:06:53.398Z,97998.77
2018-03-20T04:09:21.162Z,98002.06
2018-03-20T04:11:48.807Z,98007.44
2018-03-20T04:14:16.370Z,98005.88
2018-03-20T04:16:44.217Z,98008.44
2018-03-20T04:19:11.786Z,98004.14
2018-03-20T04:21:39.346Z,98006.83
2018-03-20T04:24:06.919Z,98010.94
2018-03-20T04:26:34.474Z,98013.62
2018-03-20T04:29:02.183Z,98011.56
2018-03-20T04:31:29.738Z,98019.98
2018-03-20T04:33:57.367Z,98023.19
2018-03-20T04:36:25.160Z,98026.37
2018-03-20T04:38:52.977Z,98025.95
2018-03-20T04:41:20.573Z,98026.30
2018-03-20T04:43:48.315Z,98025.98
2018-03-20T04:46:15.882Z,98032.67
2018-03-20T04:48:43.438Z,98039.38
2018-03-20T04:51:11.038Z,98033.16
2018-03-20T04:53:38.618Z,98035.72
2018-03-20T04:56:06.198Z,98032.08
2018-03-20T04:58:34.023Z,98035.08
2018-03-20T05:01:01.593Z,98040.95
2018-03-20T05:03:29.168Z,98041.16
2018-03-20T05:05:56.731Z,98044.41
2018-03-20T05:08:24.310Z,98048.31
2018-03-20T05:10:51.897Z,98056.17
2018-03-20T05:13:19.534Z,98047.01
2018-03-20T05:15:47.147Z,98059.44
2018-03-20T05:18:14.964Z,98057.72
2018-03-20T05:20:48.064Z,98062.38
2018-03-20T05:26:20.358Z,98075.13
2018-03-20T05:28:47.961Z,98082.02
2018-03-20T05:31:15.796Z,98084.81
2018-03-20T05:33:43.734Z,98086.41
2018-03-20T05:36:11.349Z,98089.32
2018-03-20T05:38:39.158Z,98081.42
2018-03-20T05:41:06.821Z,98093.84
2018-03-20T05:43:34.414Z,98097.66
2018-03-20T05:46:02.215Z,98101.81
2018-03-20T05:48:30.263Z,98101.20
2018-03-20T05:51:03.413Z,98106.36
2018-03-20T05:53:30.999Z,98104.95
2018-03-20T05:55:58.603Z,98109.45
2018-03-20T05:58:26.214Z,98113.15
2018-03-20T06:00:53.810Z,98115.09
2018-03-20T06:03:21.537Z,98118.22
2018-03-20T06:05:49.098Z,98119.20
2018-03-20T06:08:16.722Z,98127.64
2018-03-20T06:10:44.301Z,98121.34
2018-03-20T06:13:11.862Z,98127.91
2018-03-20T06:15:39.532Z,98135.20
2018-03-20T06:18:07.086Z,98145.24
2018-03-20T06:20:34.886Z,98155.59
2018-03-20T06:23:02.445Z,98144.34
2018-03-20T06:25:30.071Z,98158.72
2018-03-20T06:27:57.690Z,98152.57
2018-03-20T06:30:25.272Z,98157.94
2018-03-20T06:32:53.074Z,98159.30
2018-03-20T06:35:20.717Z,98167.59
2018-03-20T06:37:48.292Z,98162.95
2018-03-20T06:40:16.028Z,98174.69
2018-03-20T06:42:43.654Z,98173.44
2018-03-20T06:45:11.215Z,98177.27
2018-03-20T06:47:38.951Z,98184.48
2018-03-20T06:50:06.666Z,98179.80
2018-03-20T06:52:34.308Z,98188.66
2018-03-20T06:55:01.890Z,98172.69
2018-03-20T06:57:29.545Z,98189.35
2018-03-20T06:59:57.166Z,98194.59
2018-03-20T07:02:24.727Z,98199.47
2018-03-20T07:04:52.289Z,98198.89
2018-03-20T07:07:19.860Z,98207.34
2018-03-20T07:09:47.643Z,98205.83
2018-03-20T07:12:15.252Z,98209.73
2018-03-20T07:14:42.828Z,98215.02
2018-03-20T07:17:10.399Z,98216.05
2018-03-20T07:19:38.007Z,98223.09
2018-03-20T07:22:05.640Z,98218.66
2018-03-20T07:24:33.227Z,98219.08
2018-03-20T07:27:00.958Z,98219.94
2018-03-20T07:29:28.773Z,98219.88
2018-03-20T07:31:56.505Z,98224.63
2018-03-20T07:34:24.114Z,98233.80
2018-03-20T07:36:51.841Z,98234.64
2018-03-20T07:39:19.474Z,98235.70
2018-03-20T07:41:47.278Z,98240.73
2018-03-20T07:44:14.910Z,98249.11
2018-03-20T07:46:42.628Z,98240.20
2018-03-20T07:49:10.222Z,98250.83
2018-03-20T07:51:37.794Z,98259.09
2018-03-20T07:54:05.534Z,98252.19
2018-03-20T07:56:33.388Z,98248.07
2018-03-20T07:59:00.957Z,98260.38
2018-03-20T08:01:28.685Z,98269.55
2018-03-20T08:03:56.454Z,98271.37
2018-03-20T08:06:24.010Z,98265.78
2018-03-20T08:08:51.578Z,98271.98
2018-03-20T08:11:19.397Z,98270.95
2018-03-20T08:13:47.217Z,98275.09
2018-03-20T08:16:14.780Z,98270.40
2018-03-20T08:18:42.346Z,98273.64
2018-03-20T08:21:09.951Z,98274.32
2018-03-20T08:23:37.505Z,98273.38
2018-03-20T08:26:05.083Z,98271.44
2018-03-20T08:28:32.650Z,98276.94
2018-03-20T08:31:00.222Z,98275.05
2018-03-20T08:33:27.955Z,98271.55
2018-03-20T08:35:55.567Z,98271.06
2018-03-20T08:38:23.123Z,98274.20
2018-03-20T08:40:50.908Z,98256.55
2018-03-20T08:43:18.476Z,98275.48
2018-03-20T08:45:46.245Z,98283.00
2018-03-20T08:48:14.079Z,98282.84
2018-03-20T08:50:41.715Z,98284.52
2018-03-20T08:53:09.374Z,98274.72
2018-03-20T08:55:37.055Z,98282.91
2018-03-20T08:58:04.665Z,98272.86
2018-03-20T09:00:32.304Z,98274.44
2018-03-20T09:02:59.870Z,98278.94
2018-03-20T09:05:27.548Z,98268.80
2018-03-20T09:07:55.106Z,98271.59
2018-03-20T09:10:23.731Z,98267.27
2018-03-20T09:12:51.289Z,98268.80
2018-03-20T09:15:18.858Z,98277.47
2018-03-20T09:17:46.684Z,98280.88
2018-03-20T09:20:14.503Z,98283.45
2018-03-20T09:22:42.082Z,98282.23
2018-03-20T09:25:10.129Z,98287.80
2018-03-20T09:27:37.967Z,98283.84
2018-03-20T09:30:05.575Z,98285.25
2018-03-20T09:32:33.380Z,98294.32
2018-03-20T09:35:01.072Z,98290.27
2018-03-20T09:37:28.665Z,98293.87
2018-03-20T09:39:56.388Z,98297.69
2018-03-20T09:42:24.090Z,98295.14
2018-03-20T09:44:51.768Z,98316.97
2018-03-20T09:47:19.475Z,98312.30
2018-03-20T09:49:47.192Z,98315.87
2018-03-20T09:52:14.823Z,98317.71
2018-03-20T09:54:42.458Z,98321.20
2018-03-20T09:57:10.018Z,98323.81
2018-03-20T09:59:37.578Z,98322.20
2018-03-20T10:02:05.396Z,98322.92
2018-03-20T10:04:32.974Z,98321.61
2018-03-20T10:07:00.542Z,98315.13
2018-03-20T10:09:28.098Z,98319.44
2018-03-20T10:11:55.714Z,98324.46
2018-03-20T10:14:23.279Z,98322.38
2018-03-20T10:16:51.018Z,98327.87
2018-03-20T10:19:18.811Z,98322.84
2018-03-20T10:21:46.374Z,98328.69
2018-03-20T10:24:13.950Z,98328.77
2018-03-20T10:26:41.518Z,98326.02
2018-03-20T10:29:09.154Z,98327.90
2018-03-20T10:31:36.819Z,98330.46
2018-03-20T10:34:04.382Z,98321.20
2018-03-20T10:36:32.051Z,98329.20
2018-03-20T10:38:59.690Z,98333.25
2018-03-20T10:41:27.499Z,98332.28
2018-03-20T10:43:55.058Z,98338.16
2018-03-20T10:46:22.831Z,98341.22
2018-03-20T10:48:50.390Z,98339.87
2018-03-20T10:51:17.966Z,98346.28
2018-03-20T10:53:45.530Z,98341.74
2018-03-20T10:56:13.088Z,98341.34
2018-03-20T10:58:40.663Z,98347.64
2018-03-20T11:01:08.262Z,98347.80
2018-03-20T11:03:35.827Z,98349.63
2018-03-20T11:06:03.404Z,98349.77
2018-03-20T11:08:31.082Z,98350.34
2018-03-20T11:10:58.775Z,98346.91
2018-03-20T11:13:26.498Z,98357.67
2018-03-20T11:15:54.207Z,98363.78
2018-03-20T11:18:21.842Z,98359.53
2018-03-20T11:20:49.585Z,98360.43
2018-03-20T11:23:17.141Z,98361.25
2018-03-20T11:25:44.768Z,98360.38
2018-03-20T11:28:12.537Z,98357.48
2018-03-20T11:30:40.094Z,98358.52
2018-03-20T11:33:07.662Z,98364.14
2018-03-20T11:35:35.523Z,98354.61
2018-03-20T11:38:03.101Z,98347.65
2018-03-20T11:40:30.842Z,98356.36
2018-03-20T11:42:58.645Z,98362.05
2018-03-20T11:45:26.213Z,98354.58
2018-03-20T11:47:54.044Z,98358.71
2018-03-20T11:50:21.760Z,98352.51
2018-03-20T11:52:49.347Z,98359.64
2018-03-20T11:55:17.135Z,98361.86
2018-03-20T11:57:44.956Z,98359.70
2018-03-20T12:00:12.773Z,98367.69
2018-03-20T12:02:40.821Z,98368.50
2018-03-20T12:05:08.390Z,98368.59
2018-03-20T12:07:36.015Z,98361.86
2018-03-20T12:10:03.817Z,98360.47
2018-03-20T12:12:31.669Z,98356.62
2018-03-20T12:14:59.294Z,98358.80
2018-03-20T12:17:26.893Z,98358.47
2018-03-20T12:19:54.733Z,98357.28
2018-03-20T12:22:22.323Z,98361.89
2018-03-20T12:24:49.894Z,98368.45
2018-03-20T12:27:17.474Z,98367.70
2018-03-20T12:29:45.025Z,98378.05
2018-03-20T12:32:12.808Z,98381.72
2018-03-20T12:34:40.384Z,98380.60
2018-03-20T12:37:07.947Z,98387.17
2018-03-20T12:39:35.762Z,98382.08
2018-03-20T12:42:03.373Z,98385.80
2018-03-20T12:44:31.090Z,98382.29
2018-03-20T12:46:58.655Z,98374.19
2018-03-20T12:49:26.236Z,98381.46
2018-03-20T12:51:53.844Z,98383.39
2018-03-20T12:54:21.562Z,98376.96
2018-03-20T12:56:49.388Z,98377.81
2018-03-20T12:59:16.960Z,98385.00
2018-03-20T13:01:44.535Z,98383.66
2018-03-20T13:04:12.098Z,98378.25
2018-03-20T13:06:39.860Z,98373.67
2018-03-20T13:09:07.662Z,98380.77
2018-03-20T13:11:35.397Z,98375.85
2018-03-20T13:14:03.094Z,98379.70
2018-03-20T13:16:30.714Z,98372.80
2018-03-20T13:18:58.342Z,98371.06
2018-03-20T13:21:26.169Z,98378.61
2018-03-20T13:23:53.763Z,98384.78
2018-03-20T13:26:21.396Z,98388.65
2018-03-20T13:28:49.225Z,98377.50
2018-03-20T13:31:17.042Z,98385.81
2018-03-20T13:33:44.622Z,98392.23
2018-03-20T13:36:12.187Z,98386.45
2018-03-20T13:38:39.814Z,98389.73
2018-03-20T13:41:07.615Z,98389.62
2018-03-20T13:43:35.239Z,98379.34
2018-03-20T13:46:03.050Z,98380.89
2018-03-20T13:48:30.622Z,98380.94
2018-03-20T13:50:58.680Z,98392.36
2018-03-20T13:53:28.305Z,98394.50
2018-03-20T13:55:56.131Z,98399.25
2018-03-20T13:58:23.949Z,98399.94
2018-03-20T14:00:51.583Z,98395.45
2018-03-20T14:03:19.174Z,98414.30
2018-03-20T14:05:46.745Z,98411.20
2018-03-20T14:08:14.348Z,98410.91
2018-03-20T14:10:42.018Z,98411.95
2018-03-20T14:13:09.599Z,98416.78
2018-03-20T14:15:37.174Z,98416.70
2018-03-20T14:18:04.789Z,98428.05
2018-03-20T14:20:32.359Z,98425.47
2018-03-20T14:23:00.128Z,98426.51
2018-03-20T14:25:27.722Z,98416.54
2018-03-20T14:27:55.513Z,98438.75
2018-03-20T14:30:23.324Z,98429.13
2018-03-20T14:32:51.042Z,98424.76
2018-03-20T14:35:18.618Z,98430.92
2018-03-20T14:37:46.378Z,98438.30
2018-03-20T14:40:14.197Z,98439.48
2018-03-20T14:42:41.782Z,98440.08
2018-03-20T14:45:09.534Z,98437.14
2018-03-20T14:47:37.119Z,98434.36
2018-03-20T14:50:04.764Z,98439.66
2018-03-20T14:52:32.354Z,98441.09
2018-03-20T14:54:59.979Z,98451.05
2018-03-20T14:57:27.724Z,98452.75
2018-03-20T14:59:55.432Z,98463.30
2018-03-20T15:02:23.020Z,98438.13
2018-03-20T15:04:50.757Z,98458.34
2018-03-20T15:07:18.356Z,98464.97
2018-03-20T15:09:45.941Z,98455.05
2018-03-20T15:12:13.622Z,98470.96
2018-03-20T15:14:41.449Z,98470.95
2018-03-20T15:17:09.267Z,98471.76
2018-03-20T15:19:36.835Z,98465.62
2018-03-20T15:22:04.483Z,98464.29
2018-03-20T15:24:32.064Z,98478.48
2018-03-20T15:26:59.839Z,98484.52
2018-03-20T15:29:27.422Z,98494.54
2018-03-20T15:31:54.977Z,98502.30
2018-03-20T15:34:22.542Z,98505.86
2018-03-20T15:36:50.108Z,98515.88
2018-03-20T15:39:17.723Z,98514.94
2018-03-20T15:41:45.321Z,98526.41
2018-03-20T15:44:13.046Z,98537.61
2018-03-20T15:46:40.674Z,98533.94
2018-03-20T15:49:08.341Z,98547.02
2018-03-20T15:51:35.903Z,98547.13
2018-03-20T15:54:03.478Z,98547.44
2018-03-20T15:56:31.039Z,98545.59
2018-03-20T15:58:58.602Z,98553.53
2018-03-20T16:01:26.177Z,98552.95
2018-03-20T16:03:53.767Z,98548.27
2018-03-20T16:06:21.495Z,98551.30
2018-03-20T16:08:49.070Z,98547.69
2018-03-20T16:11:16.863Z,98557.86
2018-03-20T16:13:44.430Z,98562.69
2018-03-20T16:16:11.993Z,98566.76
2018-03-20T16:18:39.568Z,98576.86
2018-03-20T16:21:07.316Z,98569.78
2018-03-20T16:23:34.890Z,98568.00
2018-03-20T16:26:02.457Z,98563.59
2018-03-20T16:28:30.085Z,98566.75
2018-03-20T16:30:57.651Z,98570.52
2018-03-20T16:33:25.521Z,98575.73
2018-03-20T16:35:53.205Z,98585.47
2018-03-20T16:38:20.784Z,98592.59
2018-03-20T16:40:48.567Z,98592.69
2018-03-20T16:43:16.296Z,98593.66
2018-03-20T16:45:44.132Z,98585.47
2018-03-20T16:48:11.931Z,98595.47
2018-03-20T16:50:39.498Z,98601.44
2018-03-20T16:53:07.268Z,98609.23
2018-03-20T16:55:34.840Z,98616.02
2018-03-20T16:58:02.605Z,98617.78
2018-03-20T17:00:30.208Z,98626.27
2018-03-20T17:02:57.812Z,98622.11
2018-03-20T17:05:25.401Z,98622.65
2018-03-20T17:07:52.989Z,98630.62
2018-03-20T17:10:20.794Z,98639.73
2018-03-20T17:12:48.370Z,98647.31
2018-03-20T17:15:16.033Z,98648.31
2018-03-20T17:17:43.690Z,98649.65
2018-03-20T17:20:11.267Z,98654.15
2018-03-20T17:22:38.855Z,98652.22
2018-03-20T17:25:06.702Z,98642.47
2018-03-20T17:27:34.572Z,98641.28
2018-03-20T17:30:02.157Z,98650.69
2018-03-20T17:32:29.744Z,98662.88
2018-03-20T17:34:57.365Z,98660.46
2018-03-20T17:37:25.193Z,98681.93
2018-03-20T17:39:53.025Z,98687.16
2018-03-20T17:42:20.631Z,98688.44
2018-03-20T17:44:48.442Z,98697.50
2018-03-20T17:47:16.467Z,98697.25
2018-03-20T17:49:44.291Z,98698.27
2018-03-20T17:52:11.870Z,98692.78
2018-03-20T17:54:39.446Z,98700.78
2018-03-20T17:57:07.240Z,98702.39
2018-03-20T17:59:34.838Z,98715.36
2018-03-20T18:02:02.511Z,98720.01
2018-03-20T18:04:30.209Z,98721.47
2018-03-20T18:06:58.011Z,98715.89
2018-03-20T18:09:25.831Z,98728.11
2018-03-20T18:11:53.434Z,98733.42
2018-03-20T18:14:21.254Z,98735.30
2018-03-20T18:16:48.827Z,98737.24
2018-03-20T18:19:16.506Z,98744.05
2018-03-20T18:21:44.321Z,98749.38
2018-03-20T18:24:11.978Z,98741.75
2018-03-20T18:26:39.759Z,98755.61
2018-03-20T18:29:07.566Z,98753.86
2018-03-20T18:31:35.386Z,98757.55
2018-03-20T18:34:03.008Z,98765.37
2018-03-20T18:36:30.885Z,98760.14
2018-03-20T18:38:58.488Z,98764.20
2018-03-20T18:41:26.369Z,98765.25
2018-03-20T18:43:54.186Z,98762.61
2018-03-20T18:46:21.996Z,98764.06
2018-03-20T18:48:49.577Z,98762.19
2018-03-20T18:51:17.296Z,98760.23
2018-03-20T18:53:45.161Z,98767.92
2018-03-20T18:56:12.723Z,98766.94
2018-03-20T18:58:40.495Z,98781.64
2018-03-20T19:01:08.586Z,98786.94
2018-03-20T19:03:36.173Z,98788.61
2018-03-20T19:06:03.850Z,98788.03
2018-03-20T19:08:31.491Z,98786.84
2018-03-20T19:10:59.062Z,98786.42
2018-03-20T19:13:26.630Z,98790.27
2018-03-20T19:15:54.219Z,98780.72
2018-03-20T19:18:22.042Z,98779.34
2018-03-20T19:20:49.623Z,98784.48
2018-03-20T19:23:17.195Z,98793.30
2018-03-20T19:25:44.818Z,98795.61
2018-03-20T19:28:12.598Z,98786.36
2018-03-20T19:30:40.314Z,98793.22
2018-03-20T19:33:07.904Z,98802.61
2018-03-20T19:35:35.481Z,98818.63
2018-03-20T19:38:03.284Z,98827.37
2018-03-20T19:40:30.852Z,98832.16
2018-03-20T19:42:58.495Z,98833.84
2018-03-20T19:45:26.238Z,98828.20
2018-03-20T19:47:53.853Z,98830.44
2018-03-20T19:50:21.464Z,98850.53
2018-03-20T19:52:49.159Z,98840.41
2018-03-20T19:55:16.888Z,98845.46
2018-03-20T19:57:44.716Z,98845.86
2018-03-20T20:00:12.547Z,98839.78
2018-03-20T20:02:40.372Z,98821.67
2018-03-20T20:05:07.950Z,98823.02
2018-03-20T20:07:35.681Z,98828.77
2018-03-20T20:10:03.286Z,98828.00
2018-03-20T20:12:30.859Z,98833.49
2018-03-20T20:14:58.440Z,98839.04
2018-03-20T20:17:26.251Z,98836.67
2018-03-20T20:19:53.963Z,98837.95
2018-03-20T20:22:21.678Z,98856.73
2018-03-20T20:24:49.318Z,98864.16
2018-03-20T20:27:17.045Z,98850.59
2018-03-20T20:29:44.602Z,98837.06
2018-03-20T20:32:12.168Z,98831.44
2018-03-20T20:34:39.783Z,98831.62
2018-03-20T20:37:07.358Z,98841.85
2018-03-20T20:39:35.135Z,98842.14
2018-03-20T20:42:02.694Z,98852.59
2018-03-20T20:44:30.471Z,98850.13
2018-03-20T20:46:58.039Z,98839.91
2018-03-20T20:49:25.652Z,98843.13
2018-03-20T20:51:53.454Z,98857.39
2018-03-20T20:54:21.244Z,98864.25
2018-03-20T20:56:48.814Z,98862.52
2018-03-20T20:59:16.378Z,98868.70
2018-03-20T21:01:43.974Z,98874.75
2018-03-20T21:04:11.542Z,98870.34
2018-03-20T21:06:39.130Z,98873.30
2018-03-20T21:09:06.951Z,98875.56
2018-03-20T21:11:34.541Z,98879.32
2018-03-20T21:14:02.101Z,98875.28
2018-03-20T21:16:29.734Z,98862.91
2018-03-20T21:18:57.523Z,98858.53
2018-03-20T21:21:25.341Z,98864.34
2018-03-20T21:23:52.960Z,98872.16
2018-03-20T21:26:20.777Z,98866.80
2018-03-20T21:28:48.466Z,98861.33
2018-03-20T21:31:16.053Z,98865.03
2018-03-20T21:33:43.618Z,98866.20
2018-03-20T21:36:11.314Z,98879.44
2018-03-20T21:38:39.168Z,98879.55
2018-03-20T21:41:06.766Z,98873.91
2018-03-20T21:43:34.507Z,98876.51
2018-03-20T21:46:02.078Z,98869.73
2018-03-20T21:48:29.755Z,98868.45
2018-03-20T21:50:57.471Z,98869.75
2018-03-20T21:53:25.066Z,98855.00
2018-03-20T21:55:52.938Z,98854.58
2018-03-20T21:58:20.691Z,98868.60
2018-03-20T22:00:48.280Z,98871.00
2018-03-20T22:03:15.878Z,98882.02
2018-03-20T22:05:43.443Z,98890.41
2018-03-20T22:08:11.177Z,98891.55
2018-03-20T22:10:38.753Z,98890.11
2018-03-20T22:13:06.622Z,98889.47
2018-03-20T22:15:34.230Z,98885.71
2018-03-20T22:18:01.850Z,98897.77
2018-03-20T22:20:29.434Z,98906.52
2018-03-20T22:22:56.997Z,98907.19
2018-03-20T22:25:24.578Z,98908.70
2018-03-20T22:27:52.169Z,98896.77
2018-03-20T22:30:19.826Z,98907.19
2018-03-20T22:32:47.543Z,98903.09
2018-03-20T22:35:15.390Z,98912.98
2018-03-20T22:37:42.958Z,98912.63
2018-03-20T22:40:10.599Z,98910.95
2018-03-20T22:42:38.439Z,98916.91
2018-03-20T22:45:06.284Z,98921.95
2018-03-20T22:47:34.074Z,98917.23
2018-03-20T22:50:01.893Z,98918.54
2018-03-20T22:52:29.519Z,98919.95
2018-03-20T22:54:57.114Z,98924.00
2018-03-20T22:57:24.675Z,98918.78
2018-03-20T22:59:52.464Z,98917.29
2018-03-20T23:02:20.046Z,98912.53
2018-03-20T23:04:47.622Z,98915.26
2018-03-20T23:07:15.198Z,98928.48
2018-03-20T23:09:42.928Z,98941.24
2018-03-20T23:12:10.518Z,98936.98
2018-03-20T23:14:38.081Z,98942.94
2018-03-20T23:17:05.685Z,98950.13
2018-03-20T23:19:33.299Z,98945.55
2018-03-20T23:22:01.126Z,98943.80
2018-03-20T23:24:28.723Z,98954.86
2018-03-20T23:26:56.342Z,98967.42
2018-03-20T23:29:23.931Z,98967.00
2018-03-20T23:31:51.580Z,98963.31
2018-03-20T23:34:19.154Z,98966.11
2018-03-20T23:36:46.982Z,98965.04
2018-03-20T23:39:14.557Z,98945.59
2018-03-20T23:41:42.130Z,98970.81
2018-03-20T23:44:09.699Z,98970.05
2018-03-20T23:46:37.274Z,98963.80
2018-03-20T23:49:05.015Z,98955.97
2018-03-20T23:51:32.588Z,98949.02
2018-03-20T23:54:00.321Z,98956.20
2018-03-20T23:56:28.077Z,98955.27
2018-03-20T23:58:55.635Z,98952.78
